createdAt,value
2022-11-01T00:01:45.802Z,9.30
2022-11-01T00:04:13.009Z,8.70
2022-11-01T00:06:39.539Z,6.70
2022-11-01T00:09:06.707Z,7.77
2022-11-01T00:11:33.324Z,7.50
2022-11-01T00:13:59.879Z,6.00
2022-11-01T00:16:26.394Z,7.40
2022-11-01T00:18:53.533Z,6.93
2022-11-01T00:21:20.211Z,6.53
2022-11-01T00:23:47.608Z,6.83
2022-11-01T00:26:14.767Z,5.20
2022-11-01T00:28:41.311Z,5.93
2022-11-01T00:31:10.305Z,5.73
2022-11-01T00:33:41.924Z,8.87
2022-11-01T00:36:08.689Z,7.67
2022-11-01T00:38:35.501Z,5.43
2022-11-01T00:41:04.168Z,5.27
2022-11-01T00:43:31.440Z,5.80
2022-11-01T00:45:58.175Z,4.50
2022-11-01T00:48:24.744Z,5.17
2022-11-01T00:50:51.306Z,5.03
2022-11-01T00:53:18.001Z,4.47
2022-11-01T00:55:44.521Z,4.73
2022-11-01T00:58:11.111Z,6.67
2022-11-01T01:00:37.669Z,7.27
2022-11-01T01:03:04.871Z,6.17
2022-11-01T01:05:31.888Z,6.07
2022-11-01T01:07:58.383Z,4.50
2022-11-01T01:10:24.944Z,6.07
2022-11-01T01:12:51.466Z,4.67
2022-11-01T01:15:18.401Z,4.47
2022-11-01T01:17:44.943Z,4.33
2022-11-01T01:20:11.737Z,4.70
2022-11-01T01:22:38.371Z,6.93
2022-11-01T01:25:05.119Z,5.57
2022-11-01T01:27:31.715Z,6.17
2022-11-01T01:29:58.606Z,4.60
2022-11-01T01:32:25.207Z,5.20
2022-11-01T01:34:51.722Z,6.40
2022-11-01T01:37:18.260Z,4.73
2022-11-01T01:39:44.877Z,6.73
2022-11-01T01:42:15.238Z,5.33
2022-11-01T01:47:35.689Z,7.80
2022-11-01T01:52:59.496Z,6.03
2022-11-01T01:55:27.540Z,7.00
2022-11-01T01:57:54.308Z,6.40
2022-11-01T02:00:20.936Z,5.43
2022-11-01T02:02:47.480Z,6.23
2022-11-01T02:05:26.336Z,5.70
2022-11-01T02:07:53.066Z,5.77
2022-11-01T02:10:19.669Z,5.77
2022-11-01T02:12:49.219Z,5.63
2022-11-01T02:15:16.561Z,5.20
2022-11-01T02:17:46.574Z,5.20
2022-11-01T02:20:19.363Z,5.87
2022-11-01T02:22:54.996Z,5.77
2022-11-01T02:25:35.366Z,6.43
2022-11-01T02:28:22.282Z,4.53
2022-11-01T02:31:04.209Z,5.90
2022-11-01T02:33:33.122Z,6.57
2022-11-01T02:36:03.942Z,6.57
2022-11-01T02:38:39.896Z,6.57
2022-11-01T02:41:20.935Z,5.83
2022-11-01T02:43:59.720Z,5.10
2022-11-01T02:47:04.369Z,5.77
2022-11-01T02:49:32.811Z,5.17
2022-11-01T02:51:59.337Z,5.77
2022-11-01T02:54:31.628Z,6.33
2022-11-01T02:57:03.611Z,5.30
2022-11-01T02:59:30.153Z,6.33
2022-11-01T03:02:01.522Z,7.20
2022-11-01T03:04:28.159Z,6.47
2022-11-01T03:06:58.518Z,6.93
2022-11-01T03:09:25.114Z,6.33
2022-11-01T03:11:51.591Z,7.33
2022-11-01T03:14:23.737Z,6.03
2022-11-01T03:16:50.423Z,6.10
2022-11-01T03:19:35.723Z,7.67
2022-11-01T03:22:19.472Z,7.83
2022-11-01T03:24:50.602Z,10.10
2022-11-01T03:27:25.950Z,8.67
2022-11-01T03:29:57.164Z,7.30
2022-11-01T03:32:25.155Z,7.57
2022-11-01T03:34:52.569Z,6.47
2022-11-01T03:37:20.242Z,6.80
2022-11-01T03:39:49.819Z,6.57
2022-11-01T03:42:18.243Z,8.70
2022-11-01T03:44:45.446Z,9.07
2022-11-01T03:47:12.463Z,6.00
2022-11-01T03:49:39.033Z,6.57
2022-11-01T03:52:06.336Z,6.73
2022-11-01T03:54:32.798Z,7.70
2022-11-01T03:56:59.588Z,6.83
2022-11-01T03:59:26.746Z,6.97
2022-11-01T04:01:53.815Z,8.33
2022-11-01T04:04:20.927Z,7.43
2022-11-01T04:06:47.475Z,6.33
2022-11-01T04:09:14.107Z,6.23
2022-11-01T04:11:40.722Z,5.07
2022-11-01T04:14:26.419Z,6.20
2022-11-01T04:17:11.667Z,7.10
2022-11-01T04:19:56.730Z,4.97
2022-11-01T04:22:24.671Z,5.17
2022-11-01T04:24:51.341Z,5.70
2022-11-01T04:27:17.875Z,4.30
2022-11-01T04:29:44.411Z,4.53
2022-11-01T04:32:11.013Z,4.77
2022-11-01T04:34:43.560Z,4.70
2022-11-01T04:37:10.261Z,3.97
2022-11-01T04:39:36.986Z,3.67
2022-11-01T04:42:03.601Z,4.17
2022-11-01T04:44:30.094Z,3.87
2022-11-01T04:46:56.731Z,5.87
2022-11-01T04:49:23.237Z,5.23
2022-11-01T04:51:49.843Z,5.03
2022-11-01T04:54:16.864Z,5.33
2022-11-01T04:56:43.567Z,6.97
2022-11-01T04:59:10.102Z,6.80
2022-11-01T05:01:36.680Z,6.30
2022-11-01T05:04:03.479Z,7.17
2022-11-01T05:06:30.087Z,7.13
2022-11-01T05:08:56.884Z,7.03
2022-11-01T05:11:25.909Z,6.17
2022-11-01T05:13:52.603Z,6.53
2022-11-01T05:16:20.505Z,8.43
2022-11-01T05:18:47.790Z,7.40
2022-11-01T05:21:14.436Z,7.27
2022-11-01T05:23:41.055Z,7.87
2022-11-01T05:26:07.676Z,12.10
2022-11-01T05:28:34.762Z,10.63
2022-11-01T05:31:01.466Z,9.10
2022-11-01T05:33:28.087Z,7.80
2022-11-01T05:35:55.200Z,7.07
2022-11-01T05:38:21.696Z,6.87
2022-11-01T05:40:48.680Z,7.73
2022-11-01T05:43:15.209Z,8.23
2022-11-01T05:45:41.838Z,8.20
2022-11-01T05:48:08.515Z,9.10
2022-11-01T05:50:35.194Z,8.47
2022-11-01T05:53:08.036Z,8.17
2022-11-01T05:55:36.321Z,8.00
2022-11-01T05:58:03.282Z,8.33
2022-11-01T06:00:30.196Z,7.93
2022-11-01T06:03:00.868Z,10.43
2022-11-01T06:05:28.283Z,11.13
2022-11-01T06:07:55.065Z,12.47
2022-11-01T06:10:22.066Z,11.20
2022-11-01T06:12:48.651Z,9.53
2022-11-01T06:15:15.360Z,10.00
2022-11-01T06:17:42.105Z,16.10
2022-11-01T06:20:09.224Z,10.87
2022-11-01T06:22:36.384Z,13.27
2022-11-01T06:25:03.657Z,14.90
2022-11-01T06:27:33.786Z,14.73
2022-11-01T06:30:01.212Z,12.73
2022-11-01T06:32:28.734Z,15.40
2022-11-01T06:34:56.186Z,15.57
2022-11-01T06:37:22.918Z,15.80
2022-11-01T06:39:49.492Z,20.40
2022-11-01T06:42:16.154Z,15.63
2022-11-01T06:44:43.133Z,18.83
2022-11-01T06:47:09.915Z,20.43
2022-11-01T06:49:36.511Z,20.97
2022-11-01T06:52:03.472Z,22.63
2022-11-01T06:54:30.834Z,25.27
2022-11-01T06:56:58.432Z,20.83
2022-11-01T06:59:25.171Z,20.00
2022-11-01T07:01:53.256Z,20.83
2022-11-01T07:04:21.287Z,18.13
2022-11-01T07:06:48.327Z,18.47
2022-11-01T07:09:15.113Z,18.40
2022-11-01T07:11:41.785Z,18.87
2022-11-01T07:14:09.355Z,18.97
2022-11-01T07:16:35.923Z,18.27
2022-11-01T07:19:02.565Z,19.07
2022-11-01T07:21:29.168Z,19.00
2022-11-01T07:23:55.852Z,18.70
2022-11-01T07:26:22.860Z,19.63
2022-11-01T07:28:49.507Z,24.33
2022-11-01T07:31:16.150Z,22.67
2022-11-01T07:33:42.774Z,19.00
2022-11-01T07:36:09.361Z,19.53
2022-11-01T07:38:36.125Z,21.00
2022-11-01T07:41:04.745Z,24.20
2022-11-01T07:43:31.644Z,19.73
2022-11-01T07:45:58.888Z,23.70
2022-11-01T07:48:26.045Z,21.33
2022-11-01T07:50:55.134Z,21.07
2022-11-01T07:53:21.773Z,20.73
2022-11-01T07:55:48.394Z,24.00
2022-11-01T07:58:15.331Z,21.83
2022-11-01T08:00:42.088Z,21.47
2022-11-01T08:03:09.382Z,24.70
2022-11-01T08:05:35.955Z,25.80
2022-11-01T08:08:03.237Z,25.93
2022-11-01T08:10:30.232Z,29.10
2022-11-01T08:13:00.718Z,26.87
2022-11-01T08:15:27.314Z,29.80
2022-11-01T08:17:55.311Z,27.67
2022-11-01T08:20:21.887Z,29.70
2022-11-01T08:22:48.575Z,26.13
2022-11-01T08:25:15.273Z,33.20
2022-11-01T08:27:42.011Z,29.30
2022-11-01T08:30:09.338Z,25.93
2022-11-01T08:32:37.078Z,27.70
2022-11-01T08:35:04.549Z,26.03
2022-11-01T08:37:31.431Z,29.10
2022-11-01T08:39:58.206Z,25.90
2022-11-01T08:42:24.823Z,26.87
2022-11-01T08:44:51.597Z,25.60
2022-11-01T08:47:18.367Z,25.37
2022-11-01T08:49:46.129Z,25.90
2022-11-01T08:52:13.127Z,30.97
2022-11-01T08:54:40.557Z,32.63
2022-11-01T08:57:08.338Z,32.83
2022-11-01T08:59:35.536Z,34.30
2022-11-01T09:02:02.542Z,40.13
2022-11-01T09:04:29.947Z,37.90
2022-11-01T09:06:56.601Z,34.83
2022-11-01T09:09:23.424Z,38.60
2022-11-01T09:11:50.252Z,34.53
2022-11-01T09:14:17.482Z,39.57
2022-11-01T09:16:44.182Z,38.63
2022-11-01T09:19:10.988Z,41.77
2022-11-01T09:21:37.625Z,46.90
2022-11-01T09:24:04.261Z,54.37
2022-11-01T09:26:30.883Z,54.63
2022-11-01T09:28:58.817Z,50.10
2022-11-01T09:31:25.502Z,51.67
2022-11-01T09:33:53.907Z,51.03
2022-11-01T09:36:21.405Z,57.63
2022-11-01T09:38:48.098Z,62.20
2022-11-01T09:41:14.767Z,70.47
2022-11-01T09:43:41.351Z,73.27
2022-11-01T09:46:07.881Z,69.63
2022-11-01T09:48:34.621Z,71.70
2022-11-01T09:51:01.799Z,67.57
2022-11-01T09:53:28.586Z,65.63
2022-11-01T09:55:59.766Z,68.10
2022-11-01T09:58:45.193Z,68.43
2022-11-01T10:01:15.547Z,68.90
2022-11-01T10:03:42.610Z,69.70
2022-11-01T10:06:09.672Z,68.43
2022-11-01T10:08:45.274Z,63.77
2022-11-01T10:11:14.773Z,64.27
2022-11-01T10:13:41.349Z,67.53
2022-11-01T10:16:17.315Z,75.50
2022-11-01T10:18:50.751Z,68.97
2022-11-01T10:21:17.441Z,63.63
2022-11-01T10:23:50.658Z,53.13
2022-11-01T10:26:22.496Z,50.13
2022-11-01T10:28:49.136Z,55.97
2022-11-01T10:31:16.340Z,58.33
2022-11-01T10:33:52.601Z,54.30
2022-11-01T10:36:24.109Z,53.30
2022-11-01T10:41:49.002Z,57.30
2022-11-01T10:44:17.034Z,51.27
2022-11-01T10:46:45.493Z,58.07
2022-11-01T10:49:24.515Z,52.47
2022-11-01T10:51:52.302Z,40.27
2022-11-01T10:54:20.925Z,41.80
2022-11-01T10:56:47.798Z,50.23
2022-11-01T10:59:19.075Z,45.13
2022-11-01T11:01:45.902Z,45.93
2022-11-01T11:04:14.180Z,48.80
2022-11-01T11:06:40.835Z,54.30
2022-11-01T11:09:09.699Z,52.47
2022-11-01T11:11:37.368Z,59.50
2022-11-01T11:14:05.280Z,57.87
2022-11-01T11:16:43.373Z,56.40
2022-11-01T11:19:20.107Z,57.30
2022-11-01T11:21:47.768Z,59.07
2022-11-01T11:24:26.151Z,49.40
2022-11-01T11:26:55.197Z,53.60
2022-11-01T11:29:28.511Z,55.67
2022-11-01T11:31:56.074Z,59.43
2022-11-01T11:34:24.745Z,61.10
2022-11-01T11:36:53.722Z,52.77
2022-11-01T11:39:23.429Z,55.47
2022-11-01T11:41:50.041Z,53.97
2022-11-01T11:44:37.804Z,52.03
2022-11-01T11:47:04.500Z,49.33
2022-11-01T11:49:32.447Z,47.73
2022-11-01T11:51:59.264Z,48.17
2022-11-01T11:54:31.842Z,48.10
2022-11-01T11:57:08.864Z,48.60
2022-11-01T11:59:35.741Z,51.77
2022-11-01T12:02:03.923Z,52.37
2022-11-01T12:04:39.049Z,50.53
2022-11-01T12:07:08.255Z,52.57
2022-11-01T12:09:45.411Z,53.47
2022-11-01T12:12:24.268Z,50.10
2022-11-01T12:14:51.827Z,55.90
2022-11-01T12:17:25.551Z,54.20
2022-11-01T12:20:11.110Z,51.30
2022-11-01T12:22:38.970Z,58.57
2022-11-01T12:25:06.768Z,53.47
2022-11-01T12:27:35.060Z,58.70
2022-11-01T12:30:05.124Z,51.93
2022-11-01T12:32:33.923Z,53.00
2022-11-01T12:35:04.521Z,51.90
2022-11-01T12:37:43.827Z,53.60
2022-11-01T12:40:17.396Z,54.53
2022-11-01T12:42:51.508Z,50.13
2022-11-01T12:45:37.053Z,47.43
2022-11-01T12:48:06.030Z,46.17
2022-11-01T12:51:03.087Z,44.00
2022-11-01T12:53:35.164Z,44.33
2022-11-01T12:56:01.940Z,45.40
2022-11-01T12:58:33.475Z,43.90
2022-11-01T13:01:02.406Z,46.20
2022-11-01T13:03:42.899Z,40.67
2022-11-01T13:06:22.001Z,37.73
2022-11-01T13:09:21.935Z,35.90
2022-11-01T13:11:51.128Z,34.30
2022-11-01T13:14:21.328Z,34.63
2022-11-01T13:16:49.613Z,36.87
2022-11-01T13:19:19.577Z,39.83
2022-11-01T13:21:46.371Z,39.03
2022-11-01T13:24:13.592Z,36.03
2022-11-01T13:26:45.152Z,36.00
2022-11-01T13:29:27.618Z,34.47
2022-11-01T13:32:06.201Z,37.67
2022-11-01T13:35:06.189Z,38.73
2022-11-01T13:37:38.362Z,36.50
2022-11-01T13:40:13.547Z,33.00
2022-11-01T13:42:41.750Z,35.07
2022-11-01T13:45:27.254Z,38.87
2022-11-01T13:48:08.047Z,40.03
2022-11-01T13:50:40.885Z,41.60
2022-11-01T13:53:10.353Z,39.33
2022-11-01T13:55:39.080Z,37.20
2022-11-01T13:58:06.077Z,39.70
2022-11-01T14:00:34.111Z,41.17
2022-11-01T14:03:01.257Z,39.27
2022-11-01T14:05:36.015Z,37.63
2022-11-01T14:08:21.464Z,32.70
2022-11-01T14:10:48.493Z,29.93
2022-11-01T14:13:15.912Z,32.60
2022-11-01T14:16:09.135Z,33.60
2022-11-01T14:19:19.129Z,30.53
2022-11-01T14:21:48.354Z,33.07
2022-11-01T14:24:19.761Z,37.20
2022-11-01T14:26:47.471Z,38.50
2022-11-01T14:29:14.252Z,39.27
2022-11-01T14:31:41.258Z,37.27
2022-11-01T14:34:09.017Z,37.70
2022-11-01T14:36:37.252Z,32.33
2022-11-01T14:39:15.521Z,33.07
2022-11-01T14:41:42.675Z,37.67
2022-11-01T14:44:15.124Z,34.43
2022-11-01T14:46:46.405Z,38.63
2022-11-01T14:49:17.009Z,40.13
2022-11-01T14:51:48.601Z,44.07
2022-11-01T14:54:30.543Z,43.37
2022-11-01T14:56:57.299Z,43.73
2022-11-01T14:59:23.837Z,43.70
2022-11-01T15:01:51.706Z,45.77
2022-11-01T15:04:20.254Z,47.20
2022-11-01T15:06:47.174Z,50.03
2022-11-01T15:12:09.650Z,51.43
2022-11-01T15:14:36.260Z,49.57
2022-11-01T15:17:03.065Z,51.90
2022-11-01T15:19:32.451Z,51.20
2022-11-01T15:22:03.260Z,55.50
2022-11-01T15:24:33.022Z,52.70
2022-11-01T15:27:12.119Z,52.80
2022-11-01T15:29:42.249Z,50.20
2022-11-01T15:32:17.525Z,57.97
2022-11-01T15:34:50.718Z,52.60
2022-11-01T15:37:21.288Z,48.30
2022-11-01T15:39:48.724Z,46.30
2022-11-01T15:42:16.005Z,47.40
2022-11-01T15:44:46.109Z,50.20
2022-11-01T15:47:17.009Z,49.73
2022-11-01T15:49:48.782Z,44.00
2022-11-01T15:52:16.292Z,45.17
2022-11-01T15:54:45.375Z,48.53
2022-11-01T15:57:22.570Z,44.53
2022-11-01T15:59:54.222Z,49.73
2022-11-01T16:02:23.132Z,40.43
2022-11-01T16:04:49.873Z,42.83
2022-11-01T16:07:17.478Z,42.40
2022-11-01T16:09:46.571Z,40.93
2022-11-01T16:12:15.764Z,40.80
2022-11-01T16:14:42.460Z,37.80
2022-11-01T16:17:23.021Z,36.10
2022-11-01T16:19:51.529Z,40.30
2022-11-01T16:22:39.258Z,43.37
2022-11-01T16:25:10.243Z,37.37
2022-11-01T16:27:55.529Z,40.23
2022-11-01T16:30:34.572Z,41.30
2022-11-01T16:33:08.455Z,41.17
2022-11-01T16:35:35.652Z,44.40
2022-11-01T16:38:02.561Z,42.50
2022-11-01T16:40:34.954Z,45.07
2022-11-01T16:43:01.526Z,49.07
2022-11-01T16:45:28.190Z,45.23
2022-11-01T16:47:59.506Z,44.53
2022-11-01T16:50:26.295Z,45.90
2022-11-01T16:52:54.903Z,47.17
2022-11-01T16:55:25.403Z,51.13
2022-11-01T16:57:55.573Z,50.10
2022-11-01T17:00:22.392Z,53.17
2022-11-01T17:02:49.155Z,51.97
2022-11-01T17:05:21.797Z,52.67
2022-11-01T17:07:49.844Z,54.33
2022-11-01T17:10:17.393Z,54.83
2022-11-01T17:12:44.171Z,57.87
2022-11-01T17:15:16.476Z,56.00
2022-11-01T17:17:43.646Z,57.67
2022-11-01T17:20:23.841Z,54.93
2022-11-01T17:22:51.857Z,60.20
2022-11-01T17:25:20.791Z,58.87
2022-11-01T17:27:52.804Z,55.67
2022-11-01T17:30:19.720Z,57.50
2022-11-01T17:32:47.097Z,58.37
2022-11-01T17:35:15.411Z,56.47
2022-11-01T17:37:42.529Z,53.07
2022-11-01T17:40:19.696Z,48.93
2022-11-01T17:42:48.405Z,59.30
2022-11-01T17:45:15.240Z,53.87
2022-11-01T17:47:42.975Z,59.37
2022-11-01T17:50:13.291Z,50.17
2022-11-01T17:52:44.164Z,53.30
2022-11-01T17:55:11.704Z,53.97
2022-11-01T17:57:40.311Z,54.60
2022-11-01T18:00:08.120Z,66.20
2022-11-01T18:02:39.558Z,55.60
2022-11-01T18:05:07.053Z,50.27
2022-11-01T18:07:41.796Z,53.27
2022-11-01T18:10:13.705Z,48.03
2022-11-01T18:12:45.943Z,52.73
2022-11-01T18:15:18.242Z,53.53
2022-11-01T18:17:48.454Z,56.17
2022-11-01T18:20:20.504Z,51.73
2022-11-01T18:22:55.887Z,54.47
2022-11-01T18:25:31.860Z,52.37
2022-11-01T18:28:01.695Z,50.43
2022-11-01T18:30:29.207Z,51.70
2022-11-01T18:33:14.604Z,54.13
2022-11-01T18:35:45.027Z,57.93
2022-11-01T18:38:12.727Z,54.57
2022-11-01T18:43:53.011Z,56.80
2022-11-01T18:46:25.674Z,61.47
2022-11-01T18:49:01.862Z,51.40
2022-11-01T18:51:29.456Z,49.33
2022-11-01T18:54:04.643Z,52.80
2022-11-01T18:56:32.975Z,63.17
2022-11-01T18:59:01.732Z,59.83
2022-11-01T19:01:32.605Z,60.27
2022-11-01T19:04:02.981Z,63.87
2022-11-01T19:06:29.796Z,62.17
2022-11-01T19:08:57.267Z,62.27
2022-11-01T19:11:27.608Z,60.83
2022-11-01T19:13:56.113Z,60.70
2022-11-01T19:16:23.359Z,65.93
2022-11-01T19:18:50.586Z,64.43
2022-11-01T19:21:18.675Z,65.60
2022-11-01T19:23:48.450Z,69.67
2022-11-01T19:26:33.984Z,70.73
2022-11-01T19:29:00.781Z,67.97
2022-11-01T19:31:30.399Z,69.20
2022-11-01T19:34:02.530Z,73.00
2022-11-01T19:39:17.030Z,73.30
2022-11-01T19:41:47.480Z,68.10
2022-11-01T19:44:20.342Z,70.00
2022-11-01T19:46:48.847Z,74.87
2022-11-01T19:49:25.749Z,75.70
2022-11-01T19:52:13.146Z,68.17
2022-11-01T19:54:42.122Z,72.97
2022-11-01T19:57:16.541Z,72.43
2022-11-01T19:59:44.591Z,75.07
2022-11-01T20:02:15.244Z,73.20
2022-11-01T20:04:42.172Z,76.30
2022-11-01T20:07:18.493Z,71.47
2022-11-01T20:09:47.520Z,76.00
2022-11-01T20:12:20.053Z,64.67
2022-11-01T20:14:48.806Z,61.23
2022-11-01T20:17:18.236Z,68.10
2022-11-01T20:19:47.642Z,66.20
2022-11-01T20:22:14.447Z,69.03
2022-11-01T20:24:43.309Z,62.27
2022-11-01T20:27:11.197Z,58.10
2022-11-01T20:29:39.275Z,56.70
2022-11-01T20:32:08.884Z,54.10
2022-11-01T20:34:36.415Z,60.70
2022-11-01T20:37:27.341Z,59.80
2022-11-01T20:39:53.570Z,58.90
2022-11-01T20:42:22.726Z,59.57
2022-11-01T20:44:50.292Z,59.20
2022-11-01T20:47:16.941Z,60.77
2022-11-01T20:49:43.763Z,65.77
2022-11-01T20:52:38.191Z,59.97
2022-11-01T20:54:57.726Z,59.40
2022-11-01T20:57:28.315Z,58.87
2022-11-01T20:59:55.835Z,57.20
2022-11-01T21:02:22.678Z,64.47
2022-11-01T21:04:51.869Z,62.20
2022-11-01T21:07:18.592Z,64.00
2022-11-01T21:09:46.993Z,65.63
2022-11-01T21:12:32.814Z,66.27
2022-11-01T21:15:04.091Z,62.23
2022-11-01T21:17:31.167Z,65.40
2022-11-01T21:19:58.016Z,58.97
2022-11-01T21:22:25.445Z,58.83
2022-11-01T21:24:55.065Z,54.60
2022-11-01T21:27:32.552Z,52.47
2022-11-01T21:30:19.451Z,48.97
2022-11-01T21:32:46.735Z,48.30
2022-11-01T21:35:34.540Z,48.40
2022-11-01T21:38:03.645Z,50.47
2022-11-01T21:40:30.633Z,48.27
2022-11-01T21:42:57.814Z,46.83
2022-11-01T21:45:31.259Z,47.17
2022-11-01T21:48:00.757Z,42.27
2022-11-01T21:50:27.860Z,47.47
2022-11-01T21:52:55.251Z,47.67
2022-11-01T21:55:22.070Z,47.37
2022-11-01T21:57:48.850Z,44.17
2022-11-01T22:00:16.522Z,45.63
2022-11-01T22:02:43.900Z,42.47
2022-11-01T22:05:10.679Z,38.17
2022-11-01T22:07:37.266Z,35.70
2022-11-01T22:10:04.127Z,35.90
2022-11-01T22:12:30.822Z,34.90
2022-11-01T22:14:57.476Z,36.73
2022-11-01T22:17:24.268Z,32.57
2022-11-01T22:19:50.800Z,32.97
2022-11-01T22:22:17.473Z,30.60
2022-11-01T22:24:44.131Z,27.63
2022-11-01T22:27:10.827Z,25.83
2022-11-01T22:29:37.474Z,27.40
2022-11-01T22:32:05.072Z,21.53
2022-11-01T22:34:31.719Z,21.13
2022-11-01T22:36:58.436Z,21.30
2022-11-01T22:39:27.969Z,22.80
2022-11-01T22:41:54.602Z,20.20
2022-11-01T22:44:25.391Z,17.87
2022-11-01T22:46:57.925Z,16.63
2022-11-01T22:49:29.481Z,19.20
2022-11-01T22:51:56.818Z,18.90
2022-11-01T22:54:30.550Z,20.20
2022-11-01T22:57:01.749Z,15.43
2022-11-01T22:59:32.844Z,15.37
2022-11-01T23:02:17.029Z,16.00
2022-11-01T23:04:43.663Z,16.20
2022-11-01T23:10:34.075Z,15.13
2022-11-01T23:13:31.722Z,16.23
2022-11-01T23:16:22.243Z,16.57
2022-11-01T23:21:33.471Z,20.93
2022-11-01T23:23:59.993Z,21.80
2022-11-01T23:26:26.581Z,21.67
2022-11-01T23:28:53.450Z,22.93
2022-11-01T23:31:20.108Z,19.73
2022-11-01T23:33:47.443Z,21.30
2022-11-01T23:36:26.918Z,21.33
2022-11-01T23:39:00.491Z,23.80
2022-11-01T23:41:34.397Z,22.67
2022-11-01T23:44:01.772Z,22.37
2022-11-01T23:46:28.357Z,26.50
2022-11-01T23:49:01.698Z,26.27
2022-11-01T23:51:28.300Z,27.40
2022-11-01T23:53:54.969Z,25.73
2022-11-01T23:56:22.092Z,27.03
2022-11-01T23:58:50.692Z,30.13
